Time;durP1;ratioP1;P1;durP2;ratioP2;P2;SDS_P1;SDS_P2;PMS_P1;PMS_P2;Temp;Humidity;BMP_temperature;BMP_pressure;BME280_temperature;BME280_humidity;BME280_pressure;Samples;Min_cycle;Max_cycle;Signal;HPM_P1;HPM_P2
2023/03/01 00:01:01;;;;;;;5.88;3.08;;;;;;;6.49;68.67;95430.25;5045349;28;20028;-76
2023/03/01 00:03:27;;;;;;;5.55;3.53;;;;;;;6.44;69.27;95425.97;5043411;28;20064;-76
2023/03/01 00:05:52;;;;;;;5.00;3.35;;;;;;;6.42;68.65;95431.03;5044203;28;20175;-76
2023/03/01 00:08:17;;;;;;;5.03;2.97;;;;;;;6.43;69.22;95432.59;5045320;28;20108;-77
2023/03/01 00:10:45;;;;;;;7.38;3.70;;;;;;;6.45;68.70;95427.53;5043922;28;20029;-77
2023/03/01 00:13:10;;;;;;;4.85;3.00;;;;;;;6.42;69.29;95416.59;5043554;28;20107;-76
2023/03/01 00:15:41;;;;;;;5.53;3.40;;;;;;;6.48;69.51;95415.81;5027140;28;20120;-76
2023/03/01 00:18:08;;;;;;;4.72;2.90;;;;;;;6.36;68.93;95410.78;5043596;28;20036;-76
2023/03/01 00:20:33;;;;;;;4.63;2.88;;;;;;;6.33;70.21;95404.16;5044115;28;20146;-76
2023/03/01 00:22:59;;;;;;;4.38;3.30;;;;;;;6.28;68.90;95412.00;5043479;28;20120;-76
2023/03/01 00:25:25;;;;;;;4.53;3.10;;;;;;;6.29;69.83;95399.91;5043860;28;20253;-77
2023/03/01 00:41:53;;;;;;;2.72;2.15;;;;;;;7.11;66.25;95391.97;5125765;27;20386;-74
2023/03/01 00:44:19;;;;;;;2.22;1.80;;;;;;;6.87;65.91;95380.00;5125980;27;20330;-74
2023/03/01 00:46:44;;;;;;;3.33;2.00;;;;;;;6.70;67.16;95382.88;5125408;28;20051;-73
2023/03/01 00:49:09;;;;;;;3.15;2.30;;;;;;;6.54;66.70;95391.59;5126149;28;20030;-75
2023/03/01 00:51:35;;;;;;;3.13;2.25;;;;;;;6.46;68.00;95399.03;5124991;28;20110;-73
2023/03/01 00:54:01;;;;;;;2.95;2.10;;;;;;;6.30;67.85;95395.97;5126059;28;20020;-74
2023/03/01 00:56:28;;;;;;;3.03;1.80;;;;;;;6.26;68.76;95384.31;5123671;28;20035;-75
2023/03/01 00:58:53;;;;;;;2.80;2.08;;;;;;;6.28;70.22;95376.50;5124576;28;20037;-75
2023/03/01 01:01:22;;;;;;;3.58;2.20;;;;;;;6.18;68.49;95380.06;5125564;28;20031;-73
2023/03/01 01:03:56;;;;;;;2.85;1.90;;;;;;;6.23;69.83;95388.63;5123928;28;20028;-75
2023/03/01 01:06:24;;;;;;;2.30;1.92;;;;;;;6.11;68.81;95389.06;5124664;28;20092;-73
2023/03/01 01:08:51;;;;;;;3.00;1.90;;;;;;;6.13;69.60;95392.94;5123054;28;20024;-74
2023/03/01 01:11:16;;;;;;;3.05;2.08;;;;;;;5.99;69.05;95393.00;5124279;28;20528;-73
2023/03/01 01:13:44;;;;;;;2.85;1.98;;;;;;;6.09;69.18;95392.19;5122918;28;20043;-73
2023/03/01 01:16:10;;;;;;;2.80;2.15;;;;;;;5.92;69.19;95393.03;5124371;28;20020;-73
2023/03/01 01:18:35;;;;;;;3.33;1.80;;;;;;;5.93;69.55;95394.59;5124961;28;20076;-74
2023/03/01 01:21:06;;;;;;;3.17;1.75;;;;;;;5.89;68.99;95385.59;5123532;28;20059;-74
2023/03/01 01:23:32;;;;;;;3.00;2.45;;;;;;;5.91;69.24;95380.56;5125574;27;20428;-74
2023/03/01 01:25:57;;;;;;;3.70;2.15;;;;;;;5.84;69.13;95364.19;5124203;27;20022;-73
2023/03/01 01:28:23;;;;;;;3.65;2.22;;;;;;;5.85;69.29;95372.00;5123958;28;20027;-74
2023/03/01 01:30:48;;;;;;;3.40;2.10;;;;;;;5.91;70.26;95379.75;5122431;28;20452;-73
2023/03/01 01:33:13;;;;;;;2.47;2.03;;;;;;;5.80;68.84;95374.34;5125528;27;20023;-74
2023/03/01 01:35:39;;;;;;;2.90;2.30;;;;;;;5.83;69.98;95389.91;5124233;27;20125;-74
2023/03/01 01:38:04;;;;;;;2.70;1.92;;;;;;;5.73;68.98;95398.91;5125036;28;20031;-73
2023/03/01 01:40:29;;;;;;;3.40;2.00;;;;;;;5.82;69.18;95400.06;5123020;28;20127;-73
2023/03/01 01:42:55;;;;;;;2.92;2.03;;;;;;;5.67;68.88;95384.13;5108736;28;20032;-73
2023/03/01 01:45:31;;;;;;;2.92;2.10;;;;;;;5.79;69.24;95400.06;5110046;28;20063;-73
2023/03/01 01:48:10;;;;;;;2.83;2.17;;;;;;;5.81;68.31;95395.00;5108603;28;20024;-73
2023/03/01 01:50:39;;;;;;;2.97;2.20;;;;;;;5.84;68.77;95397.69;5110038;28;20050;-74
2023/03/01 01:53:17;;;;;;;2.97;2.10;;;;;;;5.76;68.36;95385.25;5108797;28;20059;-74
2023/03/01 01:55:45;;;;;;;2.85;2.05;;;;;;;5.78;68.54;95391.09;5092363;28;20466;-73
2023/03/01 01:58:12;;;;;;;2.88;2.30;;;;;;;5.73;67.83;95386.03;5110848;28;20295;-73
2023/03/01 02:00:38;;;;;;;4.00;2.63;;;;;;;5.66;68.60;95388.78;5108545;28;20031;-73
2023/03/01 02:03:11;;;;;;;3.47;2.60;;;;;;;5.69;67.79;95388.03;5111126;28;20023;-74
2023/03/01 02:05:57;;;;;;;3.17;2.83;;;;;;;5.68;68.48;95372.03;5108641;28;20027;-75
2023/03/01 02:08:25;;;;;;;2.83;1.95;;;;;;;5.67;68.47;95370.47;5109762;28;20034;-73
2023/03/01 02:10:52;;;;;;;2.85;2.08;;;;;;;5.58;68.05;95374.41;5092129;28;20027;-74
2023/03/01 02:13:17;;;;;;;2.60;1.80;;;;;;;5.73;69.49;95355.25;5108881;28;20019;-74
2023/03/01 02:15:43;;;;;;;2.63;2.00;;;;;;;5.73;67.61;95355.25;5110762;28;20031;-73
2023/03/01 02:18:10;;;;;;;5.53;1.80;;;;;;;5.85;68.24;95355.63;5108268;28;20055;-73
2023/03/01 02:20:52;;;;;;;2.30;1.60;;;;;;;5.83;67.40;95357.94;5109327;28;20124;-74
2023/03/01 02:23:18;;;;;;;2.35;1.65;;;;;;;5.89;68.17;95358.31;5108135;28;20058;-73
2023/03/01 02:25:55;;;;;;;2.45;1.73;;;;;;;5.86;67.79;95356.41;5109280;28;20465;-73
2023/03/01 02:28:29;;;;;;;1.98;1.65;;;;;;;5.96;67.85;95363.78;5109215;28;20684;-75
2023/03/01 02:33:38;;;;;;;;;;;;;;;6.01;67.92;95368.81;5110188;28;20038;-74
2023/03/01 02:36:08;;;;;;;1.95;1.60;;;;;;;5.92;67.25;95373.16;5107899;28;19912;-75
2023/03/01 02:38:33;;;;;;;2.50;2.00;;;;;;;5.92;67.93;95373.16;5110704;28;20020;-75
2023/03/01 02:41:00;;;;;;;2.58;2.17;;;;;;;5.94;67.29;95374.31;5108602;28;20547;-74
2023/03/01 02:43:29;;;;;;;3.20;2.20;;;;;;;5.99;67.65;95381.31;5106767;28;20031;-74
2023/03/01 02:45:57;;;;;;;2.70;2.20;;;;;;;5.98;67.09;95377.81;5107646;28;20114;-74
2023/03/01 02:48:23;;;;;;;4.05;2.10;;;;;;;5.93;67.63;95372.75;5106371;28;20082;-74
2023/03/01 02:51:15;;;;;;;3.38;2.80;;;;;;;5.99;69.98;95373.13;5108671;28;20157;-74
2023/03/01 02:53:59;;;;;;;3.80;2.85;;;;;;;5.93;67.89;95374.72;5099273;28;20039;-74
2023/03/01 02:56:25;;;;;;;3.55;2.35;;;;;;;5.90;69.36;95370.78;5107885;28;20114;-74
2023/03/01 02:58:51;;;;;;;2.67;2.10;;;;;;;5.81;67.97;95370.44;5108519;28;20121;-75
2023/03/01 03:01:18;;;;;;;3.17;2.00;;;;;;;5.86;69.76;95365.34;5105946;28;20020;-74
2023/03/01 03:03:43;;;;;;;3.28;2.08;;;;;;;5.77;67.81;95372.41;5106962;28;20046;-75
2023/03/01 03:06:09;;;;;;;3.65;2.15;;;;;;;5.85;68.68;95372.00;5089107;28;20474;-74
2023/03/01 03:08:34;;;;;;;3.25;1.90;;;;;;;5.74;68.14;95365.03;5108253;28;20032;-74
2023/03/01 03:11:00;;;;;;;3.03;1.80;;;;;;;5.81;68.61;95363.03;5107756;28;20027;-73
2023/03/01 03:13:28;;;;;;;2.95;2.08;;;;;;;5.80;67.83;95363.44;5105834;28;20107;-74
2023/03/01 03:15:55;;;;;;;2.63;1.90;;;;;;;5.84;68.00;95375.09;5106743;28;20434;-74
2023/03/01 03:18:20;;;;;;;1.88;1.70;;;;;;;5.81;67.88;95370.44;5105623;28;20093;-73
2023/03/01 03:20:46;;;;;;;3.42;1.90;;;;;;;5.89;67.87;95380.16;5106530;28;20481;-73
2023/03/01 03:23:12;;;;;;;2.58;2.03;;;;;;;5.96;68.20;95385.59;5105607;28;20142;-73
2023/03/01 03:25:38;;;;;;;4.00;2.50;;;;;;;5.92;67.15;95376.66;5089532;28;20019;-73
2023/03/01 03:28:09;;;;;;;2.25;1.85;;;;;;;6.01;69.23;95377.00;5107422;28;20110;-74
2023/03/01 03:30:36;;;;;;;2.70;2.08;;;;;;;5.99;67.25;95386.78;5107241;28;20024;-73
2023/03/01 03:33:02;;;;;;;3.47;2.30;;;;;;;6.02;67.78;95389.50;5089211;28;20031;-75
2023/03/01 03:35:53;;;;;;;3.35;2.13;;;;;;;5.97;66.63;95384.44;5107160;28;20132;-73
2023/03/01 03:38:21;;;;;;;3.70;2.55;;;;;;;6.07;67.24;95380.09;5105272;28;20470;-73
2023/03/01 03:40:52;;;;;;;4.35;2.22;;;;;;;5.96;66.91;95391.06;5107088;28;20127;-73
2023/03/01 03:43:22;;;;;;;2.60;2.05;;;;;;;5.93;67.30;95386.41;5107142;28;20334;-73
2023/03/01 03:45:49;;;;;;;2.88;2.00;;;;;;;5.82;67.58;95388.38;5088836;28;20409;-73
2023/03/01 03:48:15;;;;;;;2.78;2.20;;;;;;;5.80;68.46;95380.59;5105092;28;20077;-73
2023/03/01 03:50:41;;;;;;;3.42;2.38;;;;;;;5.74;67.55;95392.31;5088962;28;20496;-73
2023/03/01 03:53:10;;;;;;;4.75;2.50;;;;;;;5.83;68.09;95396.16;5105190;28;20032;-75
2023/03/01 03:55:38;;;;;;;2.70;2.17;;;;;;;5.73;67.44;95396.94;5105793;28;20023;-74
2023/03/01 03:58:08;;;;;;;2.80;2.15;;;;;;;5.78;68.09;95399.28;5106672;27;20099;-73
2023/03/01 04:00:36;;;;;;;3.58;2.40;;;;;;;5.80;69.00;95396.19;5105147;28;20425;-75
2023/03/01 04:03:02;;;;;;;3.45;2.40;;;;;;;5.84;67.89;95396.91;5105992;28;20042;-75
2023/03/01 04:05:28;;;;;;;5.07;2.58;;;;;;;5.85;69.66;95382.13;5104619;28;20028;-74
2023/03/01 04:08:00;;;;;;;4.15;2.13;;;;;;;5.83;67.49;95390.69;5088869;28;20034;-73
2023/03/01 04:10:27;;;;;;;3.13;2.17;;;;;;;5.82;68.15;95389.13;5104559;28;20028;-74
2023/03/01 04:12:52;;;;;;;2.78;2.00;;;;;;;5.83;68.01;95395.38;5106089;28;20035;-73
2023/03/01 04:15:18;;;;;;;2.85;1.83;;;;;;;5.86;69.12;95397.31;5088135;28;20043;-75
2023/03/01 04:17:45;;;;;;;2.72;1.73;;;;;;;5.85;67.68;95393.81;5105632;28;20346;-74
2023/03/01 04:20:17;;;;;;;3.60;2.20;;;;;;;5.91;67.79;95394.22;5105443;28;20501;-74
2023/03/01 04:22:43;;;;;;;2.10;1.50;;;;;;;5.80;67.50;95393.44;5105068;28;20024;-75
2023/03/01 04:25:09;;;;;;;2.70;1.80;;;;;;;5.86;67.67;95395.38;5106037;28;20023;-75
2023/03/01 04:27:35;;;;;;;4.72;2.33;;;;;;;5.87;67.69;95390.69;5104545;28;20035;-74
2023/03/01 04:30:02;;;;;;;3.35;2.03;;;;;;;5.84;67.65;95381.31;5105657;28;20024;-74
2023/03/01 04:32:27;;;;;;;3.53;2.22;;;;;;;5.86;69.33;95392.66;5106135;28;20090;-75
2023/03/01 04:34:53;;;;;;;2.70;2.10;;;;;;;5.85;67.77;95398.50;5105599;28;20443;-73
2023/03/01 04:37:18;;;;;;;2.50;1.95;;;;;;;5.90;69.15;95398.06;5105301;28;20039;-74
2023/03/01 04:39:47;;;;;;;3.13;2.17;;;;;;;5.71;67.72;95396.56;5104557;28;20028;-74
2023/03/01 04:42:13;;;;;;;3.58;2.47;;;;;;;5.72;68.83;95378.25;5105248;28;20028;-75
2023/03/01 04:44:38;;;;;;;4.13;2.25;;;;;;;5.77;67.76;95369.66;5104462;28;20539;-75
2023/03/01 04:47:04;;;;;;;3.55;2.65;;;;;;;5.77;68.12;95380.59;5106972;28;20110;-75
2023/03/01 04:49:29;;;;;;;2.72;2.08;;;;;;;5.73;67.86;95374.34;5106171;28;20024;-75
2023/03/01 04:51:55;;;;;;;3.85;2.83;;;;;;;5.79;67.98;95375.50;5107036;28;20027;-74
2023/03/01 04:54:20;;;;;;;3.60;2.65;;;;;;;5.81;67.80;95375.91;5106268;28;20050;-75
2023/03/01 04:56:45;;;;;;;3.90;2.67;;;;;;;5.82;67.49;95374.72;5104952;28;20039;-75
2023/03/01 04:59:12;;;;;;;5.05;2.65;;;;;;;5.89;68.24;95391.06;5105222;28;20502;-74
2023/03/01 05:01:38;;;;;;;3.70;2.40;;;;;;;5.75;66.50;95382.94;5106224;28;20038;-73
2023/03/01 05:04:05;;;;;;;3.72;2.42;;;;;;;5.83;68.43;95374.31;5088647;28;20027;-75
2023/03/01 05:06:31;;;;;;;3.22;1.95;;;;;;;5.77;66.37;95375.13;5104362;28;20339;-75
2023/03/01 05:08:56;;;;;;;5.82;2.20;;;;;;;5.74;66.94;95376.72;5105661;28;20028;-73
2023/03/01 05:11:22;;;;;;;3.75;2.35;;;;;;;5.63;66.67;95384.13;5087502;28;20038;-75
2023/03/01 05:13:47;;;;;;;6.68;2.60;;;;;;;5.62;67.34;95385.31;5106658;28;20020;-73
2023/03/01 05:16:13;;;;;;;4.03;2.78;;;;;;;5.43;67.15;95388.47;5105239;28;20110;-73
2023/03/01 05:18:39;;;;;;;3.97;2.83;;;;;;;5.45;67.92;95391.56;5110541;28;20023;-73
2023/03/01 05:21:07;;;;;;;6.05;3.10;;;;;;;5.32;68.13;95388.47;5109999;28;20042;-73
2023/03/01 05:23:33;;;;;;;5.55;2.88;;;;;;;5.35;68.29;95392.38;5107888;28;20031;-73
2023/03/01 05:26:03;;;;;;;4.40;3.17;;;;;;;5.37;69.00;95387.31;5091813;28;20343;-73
2023/03/01 05:28:30;;;;;;;4.57;2.83;;;;;;;5.39;68.40;95396.66;5109643;28;20228;-74
2023/03/01 05:30:56;;;;;;;4.63;2.92;;;;;;;5.44;70.84;95396.25;5108388;28;20077;-75
2023/03/01 05:33:21;;;;;;;6.43;4.03;;;;;;;5.39;68.78;95388.47;5108243;28;20076;-75
2023/03/01 05:35:48;;;;;;;4.55;3.53;;;;;;;5.46;69.06;95393.91;5108274;28;20119;-75
2023/03/01 05:38:14;;;;;;;4.70;2.92;;;;;;;5.40;68.48;95390.03;5108778;28;20063;-75
2023/03/01 05:40:41;;;;;;;3.95;2.72;;;;;;;5.45;68.79;95392.38;5107467;28;20051;-74
2023/03/01 05:43:07;;;;;;;4.25;2.80;;;;;;;5.43;68.57;95393.91;5108731;28;20024;-74
2023/03/01 05:45:32;;;;;;;6.15;2.88;;;;;;;5.44;68.86;95395.47;5107698;28;20103;-74
2023/03/01 05:47:57;;;;;;;4.43;3.13;;;;;;;5.51;68.15;95406.38;5108405;28;20561;-74
2023/03/01 05:50:28;;;;;;;4.97;3.33;;;;;;;5.51;68.52;95398.97;5090916;28;20032;-73
2023/03/01 05:52:57;;;;;;;5.20;3.42;;;;;;;5.44;68.45;95404.41;5108094;28;20038;-71
2023/03/01 05:55:22;;;;;;;6.32;3.97;;;;;;;5.50;67.95;95411.03;5109437;27;20262;-72
2023/03/01 05:57:48;;;;;;;6.28;3.78;;;;;;;5.60;69.71;95412.97;5107567;28;20043;-73
2023/03/01 06:00:16;;;;;;;5.80;3.85;;;;;;;5.53;68.25;95414.94;5108346;28;20031;-73
2023/03/01 06:02:41;;;;;;;6.28;4.25;;;;;;;5.64;69.10;95414.91;5105978;28;20360;-74
2023/03/01 06:05:09;;;;;;;7.05;4.25;;;;;;;5.52;68.44;95419.63;5107877;28;20024;-72
2023/03/01 06:07:34;;;;;;;7.85;4.20;;;;;;;5.64;68.94;95428.56;5107615;28;20019;-74
2023/03/01 06:10:01;;;;;;;6.53;4.15;;;;;;;5.60;68.03;95428.56;5109254;28;20026;-74
2023/03/01 06:12:30;;;;;;;8.00;4.45;;;;;;;5.67;68.92;95425.03;5108032;28;20015;-73
2023/03/01 06:14:55;;;;;;;6.32;3.70;;;;;;;5.54;68.33;95425.44;5107446;28;20089;-74
2023/03/01 06:17:21;;;;;;;5.78;3.65;;;;;;;5.64;68.86;95436.75;5109356;28;20395;-73
2023/03/01 06:19:46;;;;;;;6.65;3.85;;;;;;;5.60;67.78;95437.50;5108643;28;20028;-74
2023/03/01 06:22:12;;;;;;;5.60;3.65;;;;;;;5.68;68.23;95430.13;5111579;28;20032;-74
2023/03/01 06:24:38;;;;;;;7.78;4.03;;;;;;;5.72;69.47;95435.53;5109160;28;20501;-74
2023/03/01 06:27:04;;;;;;;6.18;3.90;;;;;;;5.72;67.89;95435.53;5090969;28;20460;-73
2023/03/01 06:29:29;;;;;;;6.40;4.18;;;;;;;5.78;70.68;95440.19;5108827;28;20031;-73
2023/03/01 06:31:54;;;;;;;5.55;4.15;;;;;;;5.77;67.76;95435.91;5108501;28;20502;-73
2023/03/01 06:34:21;;;;;;;7.57;4.07;;;;;;;5.85;68.08;95433.97;5107593;27;20027;-74
2023/03/01 06:36:47;;;;;;;7.18;3.60;;;;;;;5.87;67.39;95439.81;5108504;28;20055;-73
2023/03/01 06:39:13;;;;;;;4.85;3.38;;;;;;;5.87;67.47;95437.06;5109035;28;20482;-74
2023/03/01 06:41:38;;;;;;;5.18;3.72;;;;;;;5.70;67.92;95438.69;5106516;28;20387;-72
2023/03/01 06:44:03;;;;;;;4.45;3.40;;;;;;;5.80;68.73;95428.91;5090500;28;20166;-74
2023/03/01 06:46:31;;;;;;;4.88;3.08;;;;;;;5.85;67.62;95432.03;5108716;28;20023;-75
2023/03/01 06:48:57;;;;;;;4.25;2.88;;;;;;;5.82;67.69;95438.25;5107270;28;20047;-75
2023/03/01 06:51:22;;;;;;;4.80;2.85;;;;;;;5.87;68.31;95431.63;5108470;28;20421;-75
2023/03/01 06:53:47;;;;;;;4.10;2.90;;;;;;;5.82;67.45;95437.47;5108530;27;20056;-75
2023/03/01 06:56:16;;;;;;;4.10;2.70;;;;;;;5.85;68.35;95437.47;5108493;27;20039;-75
2023/03/01 06:58:41;;;;;;;4.60;2.70;;;;;;;5.85;66.94;95433.97;5108080;27;20027;-75
2023/03/01 07:01:08;;;;;;;5.10;3.22;;;;;;;5.86;67.46;95432.78;5108713;28;20023;-74
2023/03/01 07:03:33;;;;;;;5.43;2.88;;;;;;;5.81;67.18;95441.38;5106578;28;20065;-75
2023/03/01 07:05:59;;;;;;;5.80;3.22;;;;;;;5.92;67.14;95431.25;5089979;28;20050;-73
2023/03/01 07:08:24;;;;;;;4.00;2.90;;;;;;;5.84;66.67;95435.91;5108129;28;20023;-76
2023/03/01 07:10:55;;;;;;;3.35;2.15;;;;;;;5.91;67.10;95437.88;5107093;28;20032;-74
2023/03/01 07:13:21;;;;;;;5.28;3.00;;;;;;;5.82;67.00;95421.88;5108467;28;20496;-74
2023/03/01 07:15:46;;;;;;;6.07;2.88;;;;;;;5.97;67.09;95430.06;5106511;28;20031;-76
2023/03/01 07:18:11;;;;;;;5.28;3.13;;;;;;;6.03;65.99;95433.94;5108106;28;20107;-74
2023/03/01 07:20:37;;;;;;;4.70;3.00;;;;;;;6.04;66.37;95439.00;5107425;28;20463;-76
2023/03/01 07:23:02;;;;;;;4.60;3.17;;;;;;;6.16;67.95;95434.28;5108066;28;20110;-76
2023/03/01 07:25:27;;;;;;;3.83;3.05;;;;;;;6.12;65.89;95424.16;5106073;28;20027;-75
2023/03/01 07:27:53;;;;;;;6.25;3.35;;;;;;;6.18;66.35;95412.81;5107409;28;20020;-75
2023/03/01 07:30:20;;;;;;;6.20;2.95;;;;;;;6.29;65.67;95427.19;5105901;28;20028;-74
2023/03/01 07:32:45;;;;;;;4.63;2.63;;;;;;;6.41;65.82;95417.78;5106384;28;20023;-75
2023/03/01 07:35:11;;;;;;;4.65;2.80;;;;;;;6.41;65.16;95425.97;5106507;28;20027;-75
2023/03/01 07:37:37;;;;;;;4.80;4.20;;;;;;;6.46;65.75;95418.16;5107128;28;20020;-73
2023/03/01 07:40:02;;;;;;;4.57;2.95;;;;;;;6.48;64.92;95421.28;5105929;28;20059;-74
2023/03/01 07:42:28;;;;;;;6.85;3.13;;;;;;;6.59;65.13;95427.44;5105938;28;20574;-75
2023/03/01 07:44:54;;;;;;;5.63;3.00;;;;;;;6.62;65.16;95429.38;5108722;28;20107;-73
2023/03/01 07:47:19;;;;;;;3.95;2.85;;;;;;;6.69;64.70;95427.78;5108077;28;20024;-74
2023/03/01 07:49:45;;;;;;;5.30;2.42;;;;;;;6.69;65.75;95422.31;5108161;28;20024;-74
2023/03/01 07:52:11;;;;;;;5.32;3.00;;;;;;;6.65;64.22;95416.84;5107492;28;20502;-75
2023/03/01 07:54:37;;;;;;;8.05;3.67;;;;;;;6.76;64.56;95416.78;5106593;28;20035;-73
2023/03/01 07:57:03;;;;;;;3.83;2.55;;;;;;;6.75;63.91;95412.50;5108091;28;20023;-73
2023/03/01 07:59:29;;;;;;;4.65;3.35;;;;;;;6.88;63.95;95410.84;5105788;28;20405;-74
2023/03/01 08:01:58;;;;;;;7.70;2.30;;;;;;;6.82;63.00;95407.78;5107937;28;20031;-74
2023/03/01 08:04:24;;;;;;;5.10;2.33;;;;;;;6.89;63.65;95405.00;5103533;28;20524;-74
2023/03/01 08:06:50;;;;;;;5.97;2.45;;;;;;;6.99;62.49;95411.56;5105961;28;20026;-75
2023/03/01 08:09:16;;;;;;;7.53;2.40;;;;;;;6.95;62.59;95410.81;5104872;28;20462;-75
2023/03/01 08:11:41;;;;;;;2.97;2.03;;;;;;;7.02;62.76;95407.25;5105243;28;20455;-76
2023/03/01 08:14:07;;;;;;;3.75;2.70;;;;;;;7.05;62.18;95409.94;5103895;28;20063;-75
2023/03/01 08:16:35;;;;;;;3.70;2.78;;;;;;;7.17;62.23;95405.97;5107201;28;20080;-75
2023/03/01 08:19:04;;;;;;;5.35;2.47;;;;;;;7.25;61.34;95401.22;5106180;28;20032;-75
2023/03/01 08:21:30;;;;;;;3.55;2.33;;;;;;;7.33;61.29;95403.47;5104997;28;20706;-73
2023/03/01 08:23:55;;;;;;;4.78;2.53;;;;;;;7.21;60.94;95405.94;5107764;28;20111;-73
2023/03/01 08:26:21;;;;;;;5.03;3.38;;;;;;;7.19;61.57;95404.38;5105017;28;20028;-75
2023/03/01 08:28:47;;;;;;;4.47;2.40;;;;;;;7.19;60.77;95398.13;5107268;28;20556;-74
2023/03/01 08:31:35;;;;;;;5.60;2.83;;;;;;;7.25;61.49;95404.72;5105617;28;20032;-74
2023/03/01 08:34:01;;;;;;;6.80;2.70;;;;;;;7.09;61.13;95391.56;5105526;28;20107;-75
2023/03/01 08:36:30;;;;;;;6.10;2.60;;;;;;;7.22;61.65;95405.53;5107092;28;20023;-74
2023/03/01 08:38:55;;;;;;;3.17;2.03;;;;;;;7.27;62.22;95401.56;5088350;28;20027;-74
2023/03/01 08:41:21;;;;;;;2.72;1.98;;;;;;;7.33;61.55;95394.50;5105789;28;20040;-74
2023/03/01 08:43:46;;;;;;;4.35;2.20;;;;;;;7.43;62.51;95402.59;5106513;28;20027;-74
2023/03/01 08:46:12;;;;;;;4.10;2.47;;;;;;;7.44;61.11;95400.66;5105767;28;20027;-74
2023/03/01 08:48:38;;;;;;;5.82;3.05;;;;;;;7.59;61.06;95402.06;5088138;28;20085;-73
2023/03/01 08:51:15;;;;;;;4.45;3.17;;;;;;;7.57;60.49;95398.16;5105453;28;20023;-75
2023/03/01 08:53:41;;;;;;;3.38;2.40;;;;;;;7.61;60.19;95396.19;5109710;28;20036;-72
2023/03/01 08:56:06;;;;;;;3.92;2.58;;;;;;;7.48;60.19;95401.41;5110302;28;20034;-74
2023/03/01 08:58:32;;;;;;;3.95;2.80;;;;;;;7.72;60.34;95397.63;5110949;28;20474;-74
2023/03/01 09:00:57;;;;;;;4.57;2.40;;;;;;;7.64;59.39;95404.38;5110191;28;20024;-74
2023/03/01 09:03:24;;;;;;;3.72;2.80;;;;;;;7.76;59.66;95403.06;5109377;28;20408;-74
2023/03/01 09:05:50;;;;;;;3.50;2.80;;;;;;;7.86;59.62;95402.19;5109088;28;20076;-74
2023/03/01 09:08:17;;;;;;;4.15;3.25;;;;;;;8.04;58.73;95404.72;5110487;28;20032;-74
2023/03/01 09:10:42;;;;;;;3.10;2.63;;;;;;;7.89;57.71;95400.59;5110766;28;20019;-73
2023/03/01 09:13:08;;;;;;;4.57;2.42;;;;;;;7.78;57.67;95397.97;5110326;28;20455;-74
2023/03/01 09:15:33;;;;;;;3.63;2.75;;;;;;;7.87;59.02;95400.22;5109339;28;20024;-74
2023/03/01 09:17:59;;;;;;;2.78;2.10;;;;;;;7.81;57.38;95391.69;5109895;28;20627;-75
2023/03/01 09:20:25;;;;;;;3.42;2.08;;;;;;;7.76;57.44;95405.03;5110703;28;20027;-73
2023/03/01 09:22:50;;;;;;;2.78;2.13;;;;;;;7.73;57.26;95384.72;5091506;28;20028;-75
2023/03/01 09:25:15;;;;;;;2.92;2.35;;;;;;;7.83;57.54;95396.75;5110436;28;20039;-74
2023/03/01 09:27:41;;;;;;;3.58;2.47;;;;;;;7.87;56.65;95389.28;5108632;28;20084;-74
2023/03/01 09:30:08;;;;;;;3.97;2.72;;;;;;;7.97;57.52;95391.09;5108600;28;20106;-74
2023/03/01 09:32:33;;;;;;;3.97;2.80;;;;;;;8.05;57.45;95400.78;5108673;28;20031;-74
2023/03/01 09:35:04;;;;;;;4.35;2.55;;;;;;;8.16;57.77;95392.47;5110099;28;20092;-73
2023/03/01 09:37:30;;;;;;;3.25;2.05;;;;;;;8.11;57.46;95393.69;5110851;28;20024;-73
2023/03/01 09:39:56;;;;;;;3.95;1.90;;;;;;;8.12;57.15;95381.53;5109209;28;20116;-73
2023/03/01 09:42:21;;;;;;;2.88;2.30;;;;;;;8.18;57.62;95368.94;5110490;28;20059;-74
2023/03/01 09:44:53;;;;;;;3.42;2.10;;;;;;;8.25;56.75;95373.53;5108149;28;20024;-73
2023/03/01 09:47:20;;;;;;;3.50;1.80;;;;;;;8.32;56.51;95383.66;5108511;28;20024;-73
2023/03/01 09:50:09;;;;;;;1.95;1.58;;;;;;;8.22;56.79;95377.91;5108177;28;20496;-74
2023/03/01 09:52:52;;;;;;;1.90;1.50;;;;;;;8.30;57.23;95370.34;5107851;28;20023;-72
2023/03/01 09:55:26;;;;;;;4.20;1.92;;;;;;;8.34;57.41;95362.88;5108998;28;20077;-74
2023/03/01 09:58:30;;;;;;;6.15;2.88;;;;;;;8.49;57.34;95368.97;5108371;28;20053;-74
2023/03/01 10:01:00;;;;;;;2.08;1.63;;;;;;;8.43;56.77;95362.38;5107761;28;20043;-74
2023/03/01 10:03:39;;;;;;;4.53;1.98;;;;;;;8.51;57.31;95356.41;5108304;28;20031;-74
2023/03/01 10:06:17;;;;;;;4.05;3.33;;;;;;;8.59;56.51;95362.53;5107426;28;20112;-75
2023/03/01 10:08:58;;;;;;;4.32;2.67;;;;;;;8.66;56.21;95354.25;5108527;28;20016;-73
2023/03/01 10:11:27;;;;;;;3.17;2.42;;;;;;;8.63;55.55;95357.78;5108058;28;20031;-75
2023/03/01 10:14:05;;;;;;;4.03;1.92;;;;;;;8.77;55.50;95352.13;5107109;28;20016;-73
2023/03/01 10:16:42;;;;;;;3.15;1.80;;;;;;;8.84;55.04;95358.69;5090765;28;20028;-74
2023/03/01 10:19:12;;;;;;;3.28;1.67;;;;;;;8.92;54.18;95333.47;5089797;28;20024;-74
2023/03/01 10:21:43;;;;;;;3.85;2.08;;;;;;;8.96;54.06;95353.38;5107388;28;20039;-73
2023/03/01 10:24:13;;;;;;;2.70;1.40;;;;;;;9.14;54.28;95336.63;5107842;28;20422;-74
2023/03/01 10:26:49;;;;;;;3.17;2.25;;;;;;;9.27;53.03;95343.06;5107202;28;20036;-73
2023/03/01 10:29:15;;;;;;;2.92;1.98;;;;;;;9.27;53.21;95334.06;5109569;28;20482;-73
2023/03/01 10:31:44;;;;;;;3.28;1.80;;;;;;;9.05;52.65;95341.88;5106594;28;20126;-74
2023/03/01 10:34:17;;;;;;;1.90;1.42;;;;;;;8.96;53.76;95342.41;5091044;28;20036;-75
2023/03/01 10:36:43;;;;;;;2.30;1.65;;;;;;;9.09;53.60;95337.13;5108687;28;20031;-74
2023/03/01 10:39:15;;;;;;;2.72;1.67;;;;;;;9.47;53.21;95332.16;5108869;28;20098;-74
2023/03/01 10:41:53;;;;;;;2.42;1.90;;;;;;;9.39;52.19;95329.94;5108364;28;20509;-73
2023/03/01 10:44:37;;;;;;;2.67;1.90;;;;;;;9.12;53.39;95339.03;5105990;28;20118;-73
2023/03/01 10:47:03;;;;;;;3.33;1.70;;;;;;;9.25;53.04;95331.75;5107696;28;20028;-74
2023/03/01 10:49:29;;;;;;;4.65;1.80;;;;;;;9.39;53.52;95329.94;5106237;28;20023;-73
2023/03/01 10:51:54;;;;;;;4.43;1.73;;;;;;;9.56;53.64;95329.59;5105647;28;20033;-73
2023/03/01 10:54:31;;;;;;;2.78;1.73;;;;;;;9.34;53.73;95320.22;5106291;28;20031;-74
2023/03/01 10:57:02;;;;;;;3.33;1.40;;;;;;;9.49;53.48;95334.47;5088381;28;20046;-74
2023/03/01 10:59:33;;;;;;;2.72;1.58;;;;;;;9.38;53.34;95328.38;5089654;28;20019;-73
2023/03/01 11:02:22;;;;;;;3.13;1.48;;;;;;;9.41;51.92;95333.06;5088453;28;20107;-73
2023/03/01 11:05:14;;;;;;;4.30;1.30;;;;;;;9.25;53.73;95337.22;5105702;28;20023;-73
2023/03/01 11:07:55;;;;;;;1.98;0.80;;;;;;;9.24;52.82;95334.91;5102050;28;20039;-73
2023/03/01 11:10:32;;;;;;;2.97;1.23;;;;;;;8.90;54.14;95340.56;5105338;28;20019;-74
2023/03/01 11:13:08;;;;;;;2.65;1.30;;;;;;;8.90;53.99;95319.41;5105970;28;20063;-72
2023/03/01 11:15:33;;;;;;;1.80;1.20;;;;;;;8.78;54.76;95330.97;5106513;28;20027;-74
2023/03/01 11:17:59;;;;;;;2.58;1.20;;;;;;;8.90;54.30;95324.88;5105237;28;20042;-74
2023/03/01 11:20:33;;;;;;;1.80;1.17;;;;;;;8.89;54.73;95323.34;5105506;28;20058;-75
2023/03/01 11:23:06;;;;;;;2.15;1.35;;;;;;;8.90;53.91;95322.16;5106601;28;20122;-75
2023/03/01 11:25:40;;;;;;;2.00;1.30;;;;;;;8.57;55.40;95318.34;5089394;28;20081;-74
2023/03/01 11:28:07;;;;;;;1.95;1.20;;;;;;;8.73;55.69;95315.75;5105205;28;20449;-75
2023/03/01 11:30:39;;;;;;;3.25;1.52;;;;;;;8.68;54.76;95316.22;5105565;28;20020;-75
2023/03/01 11:33:08;;;;;;;3.15;1.48;;;;;;;8.75;56.42;95318.84;5105461;28;20023;-74
2023/03/01 11:35:37;;;;;;;4.00;1.30;;;;;;;8.81;55.08;95319.16;5104928;28;20433;-75
2023/03/01 11:38:11;;;;;;;4.15;1.48;;;;;;;8.73;56.84;95306.75;5105738;28;20050;-75
2023/03/01 11:40:43;;;;;;;3.72;1.30;;;;;;;8.72;55.70;95297.75;5105776;28;20202;-74
2023/03/01 11:43:20;;;;;;;2.53;1.27;;;;;;;8.63;56.30;95300.25;5106916;28;20028;-75
2023/03/01 11:45:56;;;;;;;3.22;1.50;;;;;;;8.65;55.88;95302.56;5092051;28;20026;-73
2023/03/01 11:48:43;;;;;;;2.25;1.23;;;;;;;8.40;56.70;95300.22;5088382;28;20059;-73
2023/03/01 11:51:46;;;;;;;2.53;1.13;;;;;;;8.43;56.53;95285.66;5106643;28;20039;-74
2023/03/01 11:54:38;;;;;;;2.37;1.30;;;;;;;8.44;57.34;95279.03;5090602;27;20047;-73
2023/03/01 11:57:36;;;;;;;1.85;1.33;;;;;;;8.29;57.17;95277.63;5087287;28;20056;-74
2023/03/01 12:00:29;;;;;;;2.38;1.50;;;;;;;8.34;57.55;95283.44;5083290;28;20046;-73
2023/03/01 12:03:13;;;;;;;3.63;1.80;;;;;;;8.32;57.83;95279.56;5104786;28;20039;-74
2023/03/01 12:05:50;;;;;;;2.38;1.60;;;;;;;8.37;57.96;95285.38;5105851;28;20373;-73